sensor_id;sensor_type;location;lat;lon;timestamp;P1;durP1;ratioP1;P2;durP2;ratioP2
49147;SDS011;41980;45.550;12.070;2022-10-16T00:01:17;16.70;;;11.63;;
49147;SDS011;41980;45.550;12.070;2022-10-16T00:07:21;16.17;;;10.85;;
49147;SDS011;41980;45.550;12.070;2022-10-16T00:13:23;13.98;;;10.43;;
49147;SDS011;41980;45.550;12.070;2022-10-16T00:19:25;17.83;;;11.57;;
49147;SDS011;41980;45.550;12.070;2022-10-16T00:25:27;14.75;;;11.05;;
49147;SDS011;41980;45.550;12.070;2022-10-16T00:31:29;14.02;;;10.50;;
49147;SDS011;41980;45.550;12.070;2022-10-16T00:37:31;11.23;;;8.98;;
49147;SDS011;41980;45.550;12.070;2022-10-16T00:49:39;14.80;;;9.93;;
49147;SDS011;41980;45.550;12.070;2022-10-16T00:55:42;14.18;;;10.30;;
49147;SDS011;41980;45.550;12.070;2022-10-16T01:01:44;14.23;;;10.27;;
49147;SDS011;41980;45.550;12.070;2022-10-16T01:13:53;13.95;;;9.05;;
49147;SDS011;41980;45.550;12.070;2022-10-16T01:32:15;13.27;;;9.88;;
49147;SDS011;41980;45.550;12.070;2022-10-16T01:38:24;13.40;;;9.52;;
49147;SDS011;41980;45.550;12.070;2022-10-16T01:44:33;12.90;;;8.37;;
49147;SDS011;41980;45.550;12.070;2022-10-16T01:50:38;10.27;;;7.10;;
49147;SDS011;41980;45.550;12.070;2022-10-16T01:56:42;12.48;;;8.40;;
49147;SDS011;41980;45.550;12.070;2022-10-16T02:02:46;18.25;;;12.32;;
49147;SDS011;41980;45.550;12.070;2022-10-16T02:08:51;22.65;;;16.58;;
49147;SDS011;41980;45.550;12.070;2022-10-16T02:14:54;23.63;;;16.27;;
49147;SDS011;41980;45.550;12.070;2022-10-16T02:21:00;29.90;;;21.95;;
49147;SDS011;41980;45.550;12.070;2022-10-16T02:33:13;22.52;;;16.77;;
49147;SDS011;41980;45.550;12.070;2022-10-16T02:39:16;30.05;;;19.95;;
49147;SDS011;41980;45.550;12.070;2022-10-16T02:45:20;25.63;;;18.55;;
49147;SDS011;41980;45.550;12.070;2022-10-16T02:51:24;21.75;;;16.23;;
49147;SDS011;41980;45.550;12.070;2022-10-16T02:57:26;25.95;;;18.70;;
49147;SDS011;41980;45.550;12.070;2022-10-16T03:03:28;29.65;;;21.50;;
49147;SDS011;41980;45.550;12.070;2022-10-16T03:09:30;27.45;;;19.67;;
49147;SDS011;41980;45.550;12.070;2022-10-16T03:15:32;37.25;;;26.58;;
49147;SDS011;41980;45.550;12.070;2022-10-16T03:21:34;40.97;;;26.95;;
49147;SDS011;41980;45.550;12.070;2022-10-16T03:27:36;32.03;;;21.90;;
49147;SDS011;41980;45.550;12.070;2022-10-16T03:33:38;33.67;;;22.55;;
49147;SDS011;41980;45.550;12.070;2022-10-16T03:39:40;30.75;;;22.58;;
49147;SDS011;41980;45.550;12.070;2022-10-16T03:45:42;35.95;;;24.15;;
49147;SDS011;41980;45.550;12.070;2022-10-16T03:51:44;30.27;;;21.30;;
49147;SDS011;41980;45.550;12.070;2022-10-16T03:57:46;32.58;;;24.27;;
49147;SDS011;41980;45.550;12.070;2022-10-16T04:03:48;37.42;;;26.50;;
49147;SDS011;41980;45.550;12.070;2022-10-16T04:09:50;39.80;;;26.48;;
49147;SDS011;41980;45.550;12.070;2022-10-16T04:15:53;48.58;;;37.53;;
49147;SDS011;41980;45.550;12.070;2022-10-16T04:21:55;48.70;;;33.55;;
49147;SDS011;41980;45.550;12.070;2022-10-16T04:27:57;35.95;;;26.27;;
49147;SDS011;41980;45.550;12.070;2022-10-16T04:33:59;44.38;;;33.30;;
49147;SDS011;41980;45.550;12.070;2022-10-16T04:40:01;44.13;;;31.10;;
49147;SDS011;41980;45.550;12.070;2022-10-16T04:46:03;38.67;;;28.02;;
49147;SDS011;41980;45.550;12.070;2022-10-16T04:52:06;46.30;;;30.10;;
49147;SDS011;41980;45.550;12.070;2022-10-16T04:58:10;34.70;;;26.25;;
49147;SDS011;41980;45.550;12.070;2022-10-16T05:04:13;43.90;;;31.40;;
49147;SDS011;41980;45.550;12.070;2022-10-16T05:10:16;34.70;;;24.38;;
49147;SDS011;41980;45.550;12.070;2022-10-16T05:16:18;45.03;;;31.17;;
49147;SDS011;41980;45.550;12.070;2022-10-16T05:22:20;40.65;;;29.23;;
49147;SDS011;41980;45.550;12.070;2022-10-16T05:28:23;33.28;;;24.85;;
49147;SDS011;41980;45.550;12.070;2022-10-16T05:34:28;35.85;;;25.63;;
49147;SDS011;41980;45.550;12.070;2022-10-16T05:40:30;34.45;;;24.33;;
49147;SDS011;41980;45.550;12.070;2022-10-16T05:46:32;35.50;;;26.08;;
49147;SDS011;41980;45.550;12.070;2022-10-16T05:52:35;32.58;;;23.33;;
49147;SDS011;41980;45.550;12.070;2022-10-16T05:58:37;34.10;;;25.52;;
49147;SDS011;41980;45.550;12.070;2022-10-16T06:04:41;32.08;;;22.42;;
49147;SDS011;41980;45.550;12.070;2022-10-16T06:10:43;36.95;;;26.30;;
49147;SDS011;41980;45.550;12.070;2022-10-16T06:16:45;35.75;;;24.25;;
49147;SDS011;41980;45.550;12.070;2022-10-16T06:22:47;37.85;;;27.60;;
49147;SDS011;41980;45.550;12.070;2022-10-16T06:28:49;31.23;;;21.95;;
49147;SDS011;41980;45.550;12.070;2022-10-16T06:34:51;41.45;;;29.88;;
49147;SDS011;41980;45.550;12.070;2022-10-16T06:40:53;32.30;;;24.15;;
49147;SDS011;41980;45.550;12.070;2022-10-16T06:46:55;37.35;;;27.95;;
49147;SDS011;41980;45.550;12.070;2022-10-16T06:52:57;40.72;;;31.08;;
49147;SDS011;41980;45.550;12.070;2022-10-16T06:59:00;37.92;;;29.27;;
49147;SDS011;41980;45.550;12.070;2022-10-16T07:05:02;35.50;;;26.73;;
49147;SDS011;41980;45.550;12.070;2022-10-16T07:11:07;29.67;;;24.20;;
49147;SDS011;41980;45.550;12.070;2022-10-16T07:17:11;25.67;;;20.83;;
49147;SDS011;41980;45.550;12.070;2022-10-16T07:23:14;45.65;;;33.75;;
49147;SDS011;41980;45.550;12.070;2022-10-16T07:29:17;32.92;;;26.23;;
49147;SDS011;41980;45.550;12.070;2022-10-16T07:35:23;32.45;;;25.45;;
49147;SDS011;41980;45.550;12.070;2022-10-16T07:41:26;30.48;;;24.77;;
49147;SDS011;41980;45.550;12.070;2022-10-16T07:47:28;32.08;;;25.92;;
49147;SDS011;41980;45.550;12.070;2022-10-16T07:53:33;26.65;;;21.50;;
49147;SDS011;41980;45.550;12.070;2022-10-16T07:59:36;52.97;;;40.30;;
49147;SDS011;41980;45.550;12.070;2022-10-16T08:05:38;59.53;;;48.33;;
49147;SDS011;41980;45.550;12.070;2022-10-16T08:11:40;50.95;;;38.97;;
49147;SDS011;41980;45.550;12.070;2022-10-16T08:17:42;57.95;;;43.13;;
49147;SDS011;41980;45.550;12.070;2022-10-16T08:23:45;45.83;;;35.70;;
49147;SDS011;41980;45.550;12.070;2022-10-16T08:29:48;38.28;;;30.20;;
49147;SDS011;41980;45.550;12.070;2022-10-16T08:35:51;39.38;;;31.30;;
49147;SDS011;41980;45.550;12.070;2022-10-16T09:00:23;39.60;;;31.08;;
49147;SDS011;41980;45.550;12.070;2022-10-16T09:18:51;31.92;;;24.60;;
49147;SDS011;41980;45.550;12.070;2022-10-16T09:25:00;28.58;;;24.02;;
49147;SDS011;41980;45.550;12.070;2022-10-16T09:31:13;34.00;;;24.10;;
49147;SDS011;41980;45.550;12.070;2022-10-16T09:37:20;21.95;;;18.02;;
49147;SDS011;41980;45.550;12.070;2022-10-16T09:49:33;28.23;;;22.95;;
49147;SDS011;41980;45.550;12.070;2022-10-16T09:55:35;26.20;;;22.45;;
49147;SDS011;41980;45.550;12.070;2022-10-16T10:01:40;27.65;;;23.48;;
49147;SDS011;41980;45.550;12.070;2022-10-16T10:07:46;28.85;;;23.85;;
49147;SDS011;41980;45.550;12.070;2022-10-16T10:20:37;55.80;;;40.92;;
49147;SDS011;41980;45.550;12.070;2022-10-16T10:32:58;34.45;;;30.65;;
49147;SDS011;41980;45.550;12.070;2022-10-16T10:45:23;24.88;;;20.38;;
49147;SDS011;41980;45.550;12.070;2022-10-16T10:57:37;26.42;;;22.77;;
49147;SDS011;41980;45.550;12.070;2022-10-16T11:09:56;29.33;;;23.13;;
49147;SDS011;41980;45.550;12.070;2022-10-16T11:16:08;18.48;;;15.25;;
49147;SDS011;41980;45.550;12.070;2022-10-16T11:28:27;17.35;;;14.63;;
49147;SDS011;41980;45.550;12.070;2022-10-16T11:34:38;14.63;;;12.13;;
49147;SDS011;41980;45.550;12.070;2022-10-16T11:40:47;18.55;;;14.80;;
49147;SDS011;41980;45.550;12.070;2022-10-16T12:11:36;20.58;;;17.90;;
49147;SDS011;41980;45.550;12.070;2022-10-16T12:17:40;26.27;;;20.73;;
49147;SDS011;41980;45.550;12.070;2022-10-16T12:29:56;21.85;;;17.15;;
49147;SDS011;41980;45.550;12.070;2022-10-16T12:36:02;21.00;;;17.80;;
49147;SDS011;41980;45.550;12.070;2022-10-16T12:48:21;24.17;;;18.33;;
49147;SDS011;41980;45.550;12.070;2022-10-16T13:31:15;15.27;;;13.32;;
49147;SDS011;41980;45.550;12.070;2022-10-16T13:37:22;16.88;;;13.23;;
49147;SDS011;41980;45.550;12.070;2022-10-16T13:49:34;14.73;;;11.90;;
49147;SDS011;41980;45.550;12.070;2022-10-16T13:55:36;12.52;;;10.50;;
49147;SDS011;41980;45.550;12.070;2022-10-16T14:01:40;15.35;;;12.13;;
49147;SDS011;41980;45.550;12.070;2022-10-16T14:07:47;14.88;;;12.88;;
49147;SDS011;41980;45.550;12.070;2022-10-16T14:13:53;15.98;;;13.15;;
49147;SDS011;41980;45.550;12.070;2022-10-16T14:19:57;12.50;;;10.40;;
49147;SDS011;41980;45.550;12.070;2022-10-16T14:32:22;16.98;;;14.48;;
49147;SDS011;41980;45.550;12.070;2022-10-16T14:38:29;12.60;;;10.38;;
49147;SDS011;41980;45.550;12.070;2022-10-16T14:44:32;12.55;;;10.13;;
49147;SDS011;41980;45.550;12.070;2022-10-16T14:50:35;14.70;;;12.73;;
49147;SDS011;41980;45.550;12.070;2022-10-16T15:02:49;13.00;;;11.07;;
49147;SDS011;41980;45.550;12.070;2022-10-16T15:08:52;11.45;;;9.65;;
49147;SDS011;41980;45.550;12.070;2022-10-16T15:14:54;16.83;;;14.35;;
49147;SDS011;41980;45.550;12.070;2022-10-16T15:20:56;17.85;;;15.65;;
49147;SDS011;41980;45.550;12.070;2022-10-16T15:26:59;12.73;;;10.40;;
49147;SDS011;41980;45.550;12.070;2022-10-16T15:33:01;10.95;;;8.93;;
49147;SDS011;41980;45.550;12.070;2022-10-16T15:45:14;15.27;;;12.48;;
49147;SDS011;41980;45.550;12.070;2022-10-16T15:51:18;11.18;;;9.32;;
49147;SDS011;41980;45.550;12.070;2022-10-16T15:57:20;9.18;;;7.70;;
49147;SDS011;41980;45.550;12.070;2022-10-16T16:03:23;10.07;;;8.48;;
49147;SDS011;41980;45.550;12.070;2022-10-16T16:09:25;10.57;;;7.90;;
49147;SDS011;41980;45.550;12.070;2022-10-16T16:15:27;8.13;;;6.47;;
49147;SDS011;41980;45.550;12.070;2022-10-16T16:21:31;10.15;;;8.10;;
49147;SDS011;41980;45.550;12.070;2022-10-16T16:27:34;10.52;;;8.52;;
49147;SDS011;41980;45.550;12.070;2022-10-16T16:33:42;12.05;;;9.38;;
49147;SDS011;41980;45.550;12.070;2022-10-16T16:39:44;10.05;;;8.25;;
49147;SDS011;41980;45.550;12.070;2022-10-16T16:45:46;11.13;;;8.70;;
49147;SDS011;41980;45.550;12.070;2022-10-16T16:51:48;11.63;;;9.02;;
49147;SDS011;41980;45.550;12.070;2022-10-16T16:57:54;12.07;;;9.13;;
49147;SDS011;41980;45.550;12.070;2022-10-16T17:03:58;12.52;;;9.75;;
49147;SDS011;41980;45.550;12.070;2022-10-16T17:10:04;12.32;;;8.77;;
49147;SDS011;41980;45.550;12.070;2022-10-16T17:16:10;11.25;;;9.32;;
49147;SDS011;41980;45.550;12.070;2022-10-16T17:22:14;14.77;;;11.38;;
49147;SDS011;41980;45.550;12.070;2022-10-16T17:28:18;13.55;;;10.85;;
49147;SDS011;41980;45.550;12.070;2022-10-16T17:34:20;12.02;;;9.93;;
49147;SDS011;41980;45.550;12.070;2022-10-16T17:40:24;15.70;;;12.95;;
49147;SDS011;41980;45.550;12.070;2022-10-16T17:46:26;16.25;;;12.65;;
49147;SDS011;41980;45.550;12.070;2022-10-16T17:52:29;16.85;;;12.85;;
49147;SDS011;41980;45.550;12.070;2022-10-16T17:58:32;20.23;;;16.02;;
49147;SDS011;41980;45.550;12.070;2022-10-16T18:04:34;17.05;;;13.60;;
49147;SDS011;41980;45.550;12.070;2022-10-16T18:10:44;17.63;;;14.07;;
49147;SDS011;41980;45.550;12.070;2022-10-16T18:16:49;14.65;;;11.80;;
49147;SDS011;41980;45.550;12.070;2022-10-16T18:22:53;18.15;;;14.95;;
49147;SDS011;41980;45.550;12.070;2022-10-16T18:28:56;16.58;;;13.40;;
49147;SDS011;41980;45.550;12.070;2022-10-16T18:34:58;18.40;;;15.07;;
49147;SDS011;41980;45.550;12.070;2022-10-16T18:41:00;18.35;;;14.68;;
49147;SDS011;41980;45.550;12.070;2022-10-16T18:47:05;18.88;;;14.38;;
49147;SDS011;41980;45.550;12.070;2022-10-16T18:53:07;19.50;;;14.10;;
49147;SDS011;41980;45.550;12.070;2022-10-16T18:59:10;16.38;;;13.43;;
49147;SDS011;41980;45.550;12.070;2022-10-16T19:05:12;20.05;;;14.70;;
49147;SDS011;41980;45.550;12.070;2022-10-16T19:11:16;20.17;;;14.98;;
49147;SDS011;41980;45.550;12.070;2022-10-16T19:17:20;14.15;;;11.07;;
49147;SDS011;41980;45.550;12.070;2022-10-16T19:23:22;16.88;;;14.02;;
49147;SDS011;41980;45.550;12.070;2022-10-16T19:29:25;15.95;;;12.57;;
49147;SDS011;41980;45.550;12.070;2022-10-16T19:35:27;13.98;;;11.55;;
49147;SDS011;41980;45.550;12.070;2022-10-16T19:41:30;16.75;;;12.77;;
49147;SDS011;41980;45.550;12.070;2022-10-16T19:47:33;18.58;;;13.50;;
49147;SDS011;41980;45.550;12.070;2022-10-16T19:53:37;19.70;;;15.20;;
49147;SDS011;41980;45.550;12.070;2022-10-16T19:59:39;20.20;;;15.70;;
49147;SDS011;41980;45.550;12.070;2022-10-16T20:11:52;22.80;;;17.13;;
49147;SDS011;41980;45.550;12.070;2022-10-16T20:17:54;24.52;;;19.95;;
49147;SDS011;41980;45.550;12.070;2022-10-16T20:23:56;25.67;;;19.33;;
49147;SDS011;41980;45.550;12.070;2022-10-16T20:30:03;22.85;;;17.38;;
49147;SDS011;41980;45.550;12.070;2022-10-16T20:36:09;25.65;;;18.98;;
49147;SDS011;41980;45.550;12.070;2022-10-16T20:42:12;25.23;;;17.67;;
49147;SDS011;41980;45.550;12.070;2022-10-16T20:48:14;23.48;;;17.95;;
49147;SDS011;41980;45.550;12.070;2022-10-16T20:54:16;19.00;;;14.45;;
49147;SDS011;41980;45.550;12.070;2022-10-16T21:00:19;23.85;;;17.92;;
49147;SDS011;41980;45.550;12.070;2022-10-16T21:06:21;20.63;;;15.88;;
49147;SDS011;41980;45.550;12.070;2022-10-16T21:12:24;19.98;;;14.45;;
49147;SDS011;41980;45.550;12.070;2022-10-16T21:18:27;16.45;;;12.18;;
49147;SDS011;41980;45.550;12.070;2022-10-16T21:24:29;19.35;;;13.20;;
49147;SDS011;41980;45.550;12.070;2022-10-16T21:30:31;16.42;;;11.90;;
49147;SDS011;41980;45.550;12.070;2022-10-16T21:36:35;21.70;;;15.77;;
49147;SDS011;41980;45.550;12.070;2022-10-16T21:42:39;22.13;;;15.65;;
49147;SDS011;41980;45.550;12.070;2022-10-16T21:48:41;21.02;;;14.98;;
49147;SDS011;41980;45.550;12.070;2022-10-16T21:54:44;21.17;;;13.85;;
49147;SDS011;41980;45.550;12.070;2022-10-16T22:00:46;26.10;;;17.17;;
49147;SDS011;41980;45.550;12.070;2022-10-16T22:06:48;26.25;;;17.35;;
49147;SDS011;41980;45.550;12.070;2022-10-16T22:12:50;24.50;;;17.75;;
49147;SDS011;41980;45.550;12.070;2022-10-16T22:18:54;27.58;;;19.00;;
49147;SDS011;41980;45.550;12.070;2022-10-16T22:24:57;21.35;;;15.05;;
49147;SDS011;41980;45.550;12.070;2022-10-16T22:30:59;18.88;;;13.57;;
49147;SDS011;41980;45.550;12.070;2022-10-16T22:37:02;18.98;;;15.02;;
49147;SDS011;41980;45.550;12.070;2022-10-16T22:43:05;21.08;;;16.00;;
49147;SDS011;41980;45.550;12.070;2022-10-16T22:49:07;21.00;;;15.88;;
49147;SDS011;41980;45.550;12.070;2022-10-16T22:55:09;25.13;;;16.27;;
49147;SDS011;41980;45.550;12.070;2022-10-16T23:01:12;20.02;;;14.02;;
49147;SDS011;41980;45.550;12.070;2022-10-16T23:07:17;29.63;;;21.50;;
49147;SDS011;41980;45.550;12.070;2022-10-16T23:13:19;34.95;;;25.67;;
49147;SDS011;41980;45.550;12.070;2022-10-16T23:19:20;22.15;;;16.83;;
49147;SDS011;41980;45.550;12.070;2022-10-16T23:25:22;25.45;;;18.33;;
49147;SDS011;41980;45.550;12.070;2022-10-16T23:31:25;13.90;;;10.00;;
49147;SDS011;41980;45.550;12.070;2022-10-16T23:37:28;18.65;;;12.80;;
49147;SDS011;41980;45.550;12.070;2022-10-16T23:43:30;21.33;;;16.48;;
49147;SDS011;41980;45.550;12.070;2022-10-16T23:49:32;21.33;;;15.82;;
49147;SDS011;41980;45.550;12.070;2022-10-16T23:55:34;15.02;;;11.55;;
